Muirkirk, United Kingdom
Current Conditions -  °F | °C
As of 10:20 AM on Saturday 25 Oct 2014 (Local Time) from EGPK Reporting Station
Drizzle Drizzle  
Wind Chill: 50°   Ceiling: Unl
Heat Index: 50°   Visibility: 5mi
Dew Point: 48°   Wind: 15mph
Humidity: 94%   Direction: 200°SSW
Pressure: 29.71"   Gusts: NA
Location:  55.52°N, 4.07°W
Report Text: EGPK 250920Z 20013KT 8000 -DZ FEW012 SCT029 10/09 Q1006
Loading
Personal Weather Stations






























Interactive Weather Map
Tropical Storm Tracking
New forecast layout! Learn more

10-Day Weather Forecast

Advertisements
Track Severe Weather on mobile